createdAt,value
2022-09-15T00:00:28.547Z,100840.78
2022-09-15T00:02:55.281Z,100844.38
2022-09-15T00:05:22.185Z,100845.59
2022-09-15T00:07:48.722Z,100844.47
2022-09-15T00:10:15.384Z,100844.88
2022-09-15T00:12:41.913Z,100840.56
2022-09-15T00:15:09.040Z,100828.09
2022-09-15T00:17:35.658Z,100834.44
2022-09-15T00:20:02.715Z,100840.31
2022-09-15T00:22:29.339Z,100839.53
2022-09-15T00:24:55.933Z,100840.75
2022-09-15T00:27:22.482Z,100846.25
2022-09-15T00:29:49.004Z,100838.88
2022-09-15T00:32:15.548Z,100839.69
2022-09-15T00:34:42.151Z,100842.84
2022-09-15T00:37:08.723Z,100844.38
2022-09-15T00:39:35.286Z,100843.63
2022-09-15T00:42:04.367Z,100839.31
2022-09-15T00:44:37.018Z,100836.56
2022-09-15T00:47:18.744Z,100840.88
2022-09-15T00:49:49.202Z,100840.09
2022-09-15T00:52:27.926Z,100841.28
2022-09-15T00:55:00.857Z,100847.22
2022-09-15T00:57:35.607Z,100845.66
2022-09-15T01:00:07.663Z,100850.38
2022-09-15T01:02:36.138Z,100846.47
2022-09-15T01:05:07.577Z,100841.00
2022-09-15T01:07:37.446Z,100844.53
2022-09-15T01:10:10.125Z,100837.88
2022-09-15T01:12:36.801Z,100845.72
2022-09-15T01:15:03.806Z,100836.44
2022-09-15T01:18:05.213Z,100850.13
2022-09-15T01:20:57.884Z,100852.09
2022-09-15T01:23:43.108Z,100850.56
2022-09-15T01:26:47.266Z,100860.38
2022-09-15T01:29:26.973Z,100856.06
2022-09-15T01:32:20.516Z,100853.69
2022-09-15T01:35:00.929Z,100860.31
2022-09-15T01:37:33.462Z,100857.53
2022-09-15T01:40:01.905Z,100858.66
2022-09-15T01:42:31.683Z,100861.78
2022-09-15T01:45:03.669Z,100852.78
2022-09-15T01:47:30.798Z,100865.66
2022-09-15T01:50:05.843Z,100859.78
2022-09-15T01:52:33.503Z,100869.94
2022-09-15T01:55:07.824Z,100859.34
2022-09-15T01:57:34.431Z,100869.13
2022-09-15T02:00:01.106Z,100859.34
2022-09-15T02:02:36.293Z,100868.41
2022-09-15T02:05:11.408Z,100861.81
2022-09-15T02:07:44.976Z,100852.09
2022-09-15T02:10:19.488Z,100859.94
2022-09-15T02:12:56.246Z,100846.66
2022-09-15T02:15:33.413Z,100854.09
2022-09-15T02:18:02.588Z,100850.22
2022-09-15T02:20:42.748Z,100862.72
2022-09-15T02:23:21.652Z,100856.06
2022-09-15T02:25:53.437Z,100851.78
2022-09-15T02:28:26.845Z,100855.69
2022-09-15T02:30:57.253Z,100855.75
2022-09-15T02:33:29.942Z,100864.34
2022-09-15T02:35:56.648Z,100862.03
2022-09-15T02:38:23.695Z,100870.59
2022-09-15T02:40:51.462Z,100862.00
2022-09-15T02:43:18.791Z,100871.75
2022-09-15T02:45:45.959Z,100868.59
2022-09-15T02:48:13.131Z,100868.56
2022-09-15T02:50:40.066Z,100867.78
2022-09-15T02:53:07.638Z,100868.97
2022-09-15T02:55:34.579Z,100859.94
2022-09-15T02:58:01.188Z,100869.72
2022-09-15T03:00:28.550Z,100870.84
2022-09-15T03:02:56.313Z,100864.97
2022-09-15T03:05:27.672Z,100865.38
2022-09-15T03:07:55.038Z,100869.66
2022-09-15T03:10:21.916Z,100864.56
2022-09-15T03:12:51.683Z,100866.88
2022-09-15T03:15:21.159Z,100865.31
2022-09-15T03:17:48.480Z,100867.66
2022-09-15T03:20:20.283Z,100865.31
2022-09-15T03:22:47.534Z,100866.50
2022-09-15T03:25:14.138Z,100870.75
2022-09-15T03:27:41.892Z,100873.91
2022-09-15T03:30:09.903Z,100870.41
2022-09-15T03:32:37.026Z,100874.72
2022-09-15T03:35:05.003Z,100877.81
2022-09-15T03:37:31.487Z,100884.47
2022-09-15T03:39:58.322Z,100877.44
2022-09-15T03:42:24.979Z,100884.84
2022-09-15T03:44:51.511Z,100882.91
2022-09-15T03:47:18.142Z,100880.19
2022-09-15T03:49:44.727Z,100877.84
2022-09-15T03:52:12.272Z,100878.63
2022-09-15T03:54:38.773Z,100887.59
2022-09-15T03:57:05.406Z,100892.31
2022-09-15T03:59:32.002Z,100884.91
2022-09-15T04:01:58.680Z,100893.53
2022-09-15T04:04:25.266Z,100892.72
2022-09-15T04:06:51.812Z,100892.72
2022-09-15T04:09:20.327Z,100891.50
2022-09-15T04:11:47.623Z,100879.72
2022-09-15T04:14:14.214Z,100885.19
2022-09-15T04:16:40.846Z,100880.50
2022-09-15T04:19:07.598Z,100880.09
2022-09-15T04:21:34.279Z,100884.00
2022-09-15T04:24:01.049Z,100884.00
2022-09-15T04:26:31.753Z,100878.16
2022-09-15T04:29:03.617Z,100889.09
2022-09-15T04:31:31.491Z,100892.28
2022-09-15T04:33:58.247Z,100892.66
2022-09-15T04:36:27.534Z,100887.94
2022-09-15T04:38:54.157Z,100882.41
2022-09-15T04:41:21.331Z,100884.75
2022-09-15T04:43:48.193Z,100883.19
2022-09-15T04:46:15.348Z,100886.31
2022-09-15T04:48:42.077Z,100877.28
2022-09-15T04:51:12.157Z,100884.75
2022-09-15T04:53:39.090Z,100889.03
2022-09-15T04:56:10.205Z,100881.22
2022-09-15T04:58:38.524Z,100885.50
2022-09-15T05:01:10.704Z,100880.81
2022-09-15T05:03:38.198Z,100884.34
2022-09-15T05:06:07.516Z,100883.56
2022-09-15T05:08:34.058Z,100876.88
2022-09-15T05:11:02.446Z,100883.13
2022-09-15T05:13:29.116Z,100880.41
2022-09-15T05:15:55.755Z,100884.69
2022-09-15T05:18:22.436Z,100880.41
2022-09-15T05:20:48.988Z,100887.84
2022-09-15T05:23:15.617Z,100885.88
2022-09-15T05:25:42.136Z,100890.94
2022-09-15T05:28:08.674Z,100886.25
2022-09-15T05:30:39.613Z,100886.25
2022-09-15T05:33:08.007Z,100891.72
2022-09-15T05:35:34.535Z,100887.81
2022-09-15T05:38:01.039Z,100891.31
2022-09-15T05:40:27.549Z,100897.63
2022-09-15T05:42:54.026Z,100902.31
2022-09-15T05:45:20.531Z,100896.44
2022-09-15T05:47:47.078Z,100890.13
2022-09-15T05:50:14.754Z,100900.31
2022-09-15T05:52:41.248Z,100899.91
2022-09-15T05:55:08.177Z,100890.09
2022-09-15T05:57:34.712Z,100896.72
2022-09-15T06:00:01.464Z,100902.56
2022-09-15T06:02:28.014Z,100900.19
2022-09-15T06:04:54.824Z,100895.84
2022-09-15T06:07:21.297Z,100894.25
2022-09-15T06:09:47.783Z,100898.53
2022-09-15T06:12:14.369Z,100895.38
2022-09-15T06:14:43.360Z,100902.03
2022-09-15T06:17:09.893Z,100905.09
2022-09-15T06:19:36.473Z,100908.63
2022-09-15T06:22:03.012Z,100907.44
2022-09-15T06:24:29.556Z,100920.34
2022-09-15T06:26:56.038Z,100916.75
2022-09-15T06:29:22.777Z,100920.25
2022-09-15T06:31:49.340Z,100919.03
2022-09-15T06:34:15.951Z,100921.38
2022-09-15T06:36:42.493Z,100921.38
2022-09-15T06:39:09.170Z,100920.97
2022-09-15T06:42:00.759Z,100920.53
2022-09-15T06:44:22.335Z,100929.56
2022-09-15T06:46:49.309Z,100931.47
2022-09-15T06:49:16.045Z,100931.41
2022-09-15T06:51:42.585Z,100936.78
2022-09-15T06:54:09.057Z,100946.13
2022-09-15T06:56:38.123Z,100949.59
2022-09-15T06:59:04.723Z,100947.97
2022-09-15T07:01:32.289Z,100948.97
2022-09-15T07:04:00.964Z,100954.31
2022-09-15T07:06:29.305Z,100955.41
2022-09-15T07:08:56.666Z,100958.88
2022-09-15T07:11:23.104Z,100973.00
2022-09-15T07:13:49.548Z,100976.50
2022-09-15T07:16:18.807Z,100978.13
2022-09-15T07:18:48.367Z,100982.88
2022-09-15T07:21:18.353Z,100977.84
2022-09-15T07:23:44.971Z,100989.63
2022-09-15T07:26:12.842Z,100990.47
2022-09-15T07:28:42.149Z,100990.84
2022-09-15T07:31:10.818Z,100989.31
2022-09-15T07:33:37.548Z,100992.06
2022-09-15T07:36:06.615Z,100991.97
2022-09-15T07:38:34.359Z,100993.81
2022-09-15T07:41:05.501Z,100998.06
2022-09-15T07:43:32.875Z,100993.69
2022-09-15T07:46:00.834Z,100989.81
2022-09-15T07:48:27.952Z,100999.63
2022-09-15T07:50:54.827Z,100997.59
2022-09-15T07:53:24.129Z,100990.47
2022-09-15T07:55:54.819Z,100995.53
2022-09-15T07:58:22.452Z,101000.16
2022-09-15T08:00:49.134Z,101004.00
2022-09-15T08:03:16.298Z,101008.25
2022-09-15T08:05:45.615Z,101009.38
2022-09-15T08:08:13.008Z,101007.00
2022-09-15T08:10:41.165Z,101014.81
2022-09-15T08:13:08.222Z,101016.72
2022-09-15T08:15:37.474Z,101018.28
2022-09-15T08:18:05.308Z,101026.09
2022-09-15T08:20:32.659Z,101025.69
2022-09-15T08:22:59.237Z,101027.59
2022-09-15T08:25:25.858Z,101034.56
2022-09-15T08:27:54.093Z,101036.88
2022-09-15T08:30:21.340Z,101040.75
2022-09-15T08:32:48.337Z,101042.25
2022-09-15T08:35:16.024Z,101042.53
2022-09-15T08:37:42.717Z,101044.47
2022-09-15T08:40:18.346Z,101051.44
2022-09-15T08:42:48.102Z,101059.97
2022-09-15T08:45:21.683Z,101056.81
2022-09-15T08:47:51.684Z,101059.50
2022-09-15T08:50:31.258Z,101061.81
2022-09-15T08:53:09.855Z,101072.81
2022-09-15T08:55:50.547Z,101061.13
2022-09-15T08:58:58.763Z,101069.78
2022-09-15T09:01:48.030Z,101067.75
2022-09-15T09:04:43.157Z,101072.47
2022-09-15T09:07:20.606Z,101068.94
2022-09-15T09:09:56.008Z,101066.97
2022-09-15T09:12:32.040Z,101059.88
2022-09-15T09:15:05.192Z,101067.69
2022-09-15T09:18:07.387Z,101066.50
2022-09-15T09:20:41.594Z,101067.63
2022-09-15T09:23:14.512Z,101066.84
2022-09-15T09:25:43.463Z,101078.66
2022-09-15T09:28:32.536Z,101071.31
2022-09-15T09:31:08.299Z,101079.66
2022-09-15T09:33:47.595Z,101076.19
2022-09-15T09:36:14.726Z,101071.50
2022-09-15T09:38:46.296Z,101071.22
2022-09-15T09:41:17.036Z,101074.00
2022-09-15T09:43:46.325Z,101069.72
2022-09-15T09:46:16.413Z,101070.81
2022-09-15T09:48:54.347Z,101073.06
2022-09-15T09:51:48.320Z,101082.63
2022-09-15T09:54:17.588Z,101084.69
2022-09-15T09:56:46.219Z,101086.97
2022-09-15T09:59:35.994Z,101088.81
2022-09-15T10:02:18.304Z,101088.34
2022-09-15T10:04:55.494Z,101083.97
2022-09-15T10:07:25.914Z,101085.44
2022-09-15T10:09:56.224Z,101082.56
2022-09-15T10:12:28.548Z,101079.41
2022-09-15T10:14:57.770Z,101074.25
2022-09-15T10:17:28.278Z,101077.84
2022-09-15T10:19:56.850Z,101082.69
2022-09-15T10:22:34.814Z,101075.28
2022-09-15T10:25:18.246Z,101071.84
2022-09-15T10:27:44.761Z,101058.56
2022-09-15T10:30:12.392Z,101061.63
2022-09-15T10:32:39.797Z,101068.97
2022-09-15T10:35:14.112Z,101065.22
2022-09-15T10:38:15.804Z,101058.72
2022-09-15T10:41:04.533Z,101052.19
2022-09-15T10:43:37.611Z,101052.03
2022-09-15T10:46:20.696Z,101040.44
2022-09-15T10:49:20.523Z,101043.50
2022-09-15T10:52:03.735Z,101059.25
2022-09-15T10:54:37.521Z,101046.53
2022-09-15T10:57:20.499Z,101043.88
2022-09-15T11:00:08.466Z,101039.91
2022-09-15T11:03:03.399Z,101042.22
2022-09-15T11:05:37.753Z,101048.78
2022-09-15T11:08:31.967Z,101043.44
2022-09-15T11:11:18.503Z,101049.31
2022-09-15T11:14:00.993Z,101054.66
2022-09-15T11:16:34.059Z,101060.25
2022-09-15T11:19:16.026Z,101051.13
2022-09-15T11:21:47.712Z,101052.59
2022-09-15T11:24:27.405Z,101050.94
2022-09-15T11:27:03.030Z,101039.09
2022-09-15T11:29:35.512Z,101047.44
2022-09-15T11:32:09.865Z,101048.41
2022-09-15T11:34:49.104Z,101041.25
2022-09-15T11:37:21.263Z,101041.94
2022-09-15T11:40:01.879Z,101045.03
2022-09-15T11:42:56.124Z,101049.56
2022-09-15T11:45:27.502Z,101052.59
2022-09-15T11:48:01.487Z,101059.09
2022-09-15T11:50:32.725Z,101060.03
2022-09-15T11:53:03.765Z,101056.94
2022-09-15T11:55:30.216Z,101057.03
2022-09-15T11:58:16.345Z,101052.63
2022-09-15T12:00:54.351Z,101040.00
2022-09-15T12:03:24.997Z,101043.34
2022-09-15T12:05:57.478Z,101037.59
2022-09-15T12:08:32.427Z,101040.09
2022-09-15T12:11:03.462Z,101036.75
2022-09-15T12:13:31.346Z,101044.84
2022-09-15T12:16:02.061Z,101043.91
2022-09-15T12:18:40.979Z,101035.03
2022-09-15T12:21:09.262Z,101033.66
2022-09-15T12:23:42.034Z,101036.94
2022-09-15T12:26:22.100Z,101038.38
2022-09-15T12:29:02.488Z,101049.59
2022-09-15T12:31:31.105Z,101049.50
2022-09-15T12:34:00.368Z,101047.09
2022-09-15T12:36:38.871Z,101050.19
2022-09-15T12:39:19.098Z,101051.06
2022-09-15T12:41:49.116Z,101045.34
2022-09-15T12:44:25.576Z,101069.00
2022-09-15T12:46:56.379Z,101062.03
2022-09-15T12:49:30.095Z,101059.78
2022-09-15T12:51:57.678Z,101074.84
2022-09-15T12:54:30.929Z,101081.69
2022-09-15T12:56:58.595Z,101075.75
2022-09-15T12:59:27.950Z,101082.25
2022-09-15T13:01:56.188Z,101096.56
2022-09-15T13:04:25.355Z,101093.53
2022-09-15T13:07:17.147Z,101086.59
2022-09-15T13:14:08.053Z,101089.22
2022-09-15T13:19:41.984Z,101087.22
2022-09-15T13:22:14.349Z,101083.13
2022-09-15T13:24:57.701Z,101082.91
2022-09-15T13:27:59.152Z,101088.78
2022-09-15T13:30:53.901Z,101076.97
2022-09-15T13:39:39.098Z,101079.94
2022-09-15T13:42:29.768Z,101078.06
2022-09-15T13:45:17.546Z,101073.56
2022-09-15T13:47:57.800Z,101071.16
2022-09-15T13:50:40.258Z,101071.69
2022-09-15T13:53:24.319Z,101085.97
2022-09-15T13:55:53.772Z,101076.16
2022-09-15T14:01:12.348Z,101068.75
2022-09-15T14:03:38.875Z,101071.69
2022-09-15T14:06:11.750Z,101075.78
2022-09-15T14:08:39.917Z,101072.84
2022-09-15T14:11:11.112Z,101075.81
2022-09-15T14:13:45.451Z,101091.56
2022-09-15T14:16:24.198Z,101095.75
2022-09-15T14:18:51.823Z,101091.16
2022-09-15T14:21:21.282Z,101085.72
2022-09-15T14:23:50.577Z,101085.38
2022-09-15T14:26:20.936Z,101096.38
2022-09-15T14:28:53.472Z,101091.59
2022-09-15T14:31:32.252Z,101090.25
2022-09-15T14:33:59.627Z,101096.47
2022-09-15T14:36:29.792Z,101090.44
2022-09-15T14:39:09.019Z,101093.75
2022-09-15T14:41:36.672Z,101090.06
2022-09-15T14:47:20.029Z,101098.44
2022-09-15T14:49:47.484Z,101097.50
2022-09-15T14:52:25.025Z,101099.34
2022-09-15T14:54:57.840Z,101093.94
2022-09-15T14:57:31.108Z,101087.22
2022-09-15T15:00:07.010Z,101094.53
2022-09-15T15:02:49.780Z,101087.69
2022-09-15T15:05:24.758Z,101083.28
2022-09-15T15:07:52.200Z,101085.84
2022-09-15T15:10:23.417Z,101092.28
2022-09-15T15:12:53.782Z,101093.22
2022-09-15T15:15:21.169Z,101091.25
2022-09-15T15:17:50.114Z,101091.34
2022-09-15T15:20:24.004Z,101086.31
2022-09-15T15:23:23.199Z,101080.81
2022-09-15T15:25:50.172Z,101083.72
2022-09-15T15:28:35.896Z,101086.09
2022-09-15T15:31:13.200Z,101081.47
2022-09-15T15:33:48.171Z,101090.19
2022-09-15T15:36:15.106Z,101083.88
2022-09-15T15:38:47.542Z,101095.94
2022-09-15T15:41:21.400Z,101090.91
2022-09-15T15:44:03.164Z,101094.50
2022-09-15T15:46:49.178Z,101109.09
2022-09-15T15:49:16.309Z,101105.44
2022-09-15T15:51:43.087Z,101120.91
2022-09-15T15:54:09.816Z,101115.91
2022-09-15T15:56:38.053Z,101117.00
2022-09-15T15:59:05.797Z,101111.41
2022-09-15T16:01:34.406Z,101120.00
2022-09-15T16:04:00.906Z,101113.53
2022-09-15T16:06:27.571Z,101121.84
2022-09-15T16:08:58.205Z,101120.28
2022-09-15T16:11:24.798Z,101133.31
2022-09-15T16:13:51.245Z,101126.69
2022-09-15T16:16:25.907Z,101124.41
2022-09-15T16:18:52.932Z,101130.13
2022-09-15T16:21:26.444Z,101125.09
2022-09-15T16:23:53.100Z,101120.78
2022-09-15T16:26:23.213Z,101126.28
2022-09-15T16:28:49.858Z,101129.88
2022-09-15T16:31:16.481Z,101133.88
2022-09-15T16:33:43.178Z,101125.34
2022-09-15T16:36:15.520Z,101127.72
2022-09-15T16:38:42.762Z,101128.63
2022-09-15T16:41:15.152Z,101138.88
2022-09-15T16:43:42.543Z,101134.28
2022-09-15T16:46:10.992Z,101139.13
2022-09-15T16:48:38.535Z,101134.06
2022-09-15T16:51:24.919Z,101134.16
2022-09-15T16:53:56.140Z,101126.41
2022-09-15T16:56:22.734Z,101123.03
2022-09-15T16:58:50.498Z,101130.91
2022-09-15T17:01:19.591Z,101127.31
2022-09-15T17:03:48.079Z,101123.88
2022-09-15T17:06:17.760Z,101124.28
2022-09-15T17:08:45.423Z,101109.34
2022-09-15T17:11:17.300Z,101116.41
2022-09-15T17:13:44.753Z,101116.81
2022-09-15T17:16:13.829Z,101121.13
2022-09-15T17:18:40.419Z,101122.66
2022-09-15T17:21:07.352Z,101123.44
2022-09-15T17:23:37.337Z,101128.13
2022-09-15T17:26:11.656Z,101122.19
2022-09-15T17:28:38.470Z,101118.25
2022-09-15T17:31:13.442Z,101130.44
2022-09-15T17:33:40.246Z,101125.03
2022-09-15T17:36:07.147Z,101124.31
2022-09-15T17:38:34.190Z,101136.50
2022-09-15T17:41:00.740Z,101132.19
2022-09-15T17:43:29.494Z,101124.78
2022-09-15T17:45:56.549Z,101131.50
2022-09-15T17:48:24.330Z,101128.03
2022-09-15T17:50:52.670Z,101132.75
2022-09-15T17:53:23.545Z,101134.75
2022-09-15T17:55:51.149Z,101138.75
2022-09-15T17:58:18.084Z,101139.22
2022-09-15T18:00:45.332Z,101138.84
2022-09-15T18:03:20.976Z,101139.63
2022-09-15T18:05:47.729Z,101140.84
2022-09-15T18:08:14.358Z,101142.81
2022-09-15T18:10:40.910Z,101135.75
2022-09-15T18:13:07.492Z,101144.38
2022-09-15T18:15:35.282Z,101140.47
2022-09-15T18:18:05.382Z,101146.38
2022-09-15T18:20:33.094Z,101157.75
2022-09-15T18:23:00.239Z,101179.72
2022-09-15T18:25:29.845Z,101191.59
2022-09-15T18:27:58.661Z,101185.59
2022-09-15T18:30:28.231Z,101188.50
2022-09-15T18:32:57.623Z,101191.00
2022-09-15T18:35:25.218Z,101193.09
2022-09-15T18:37:58.103Z,101194.69
2022-09-15T18:40:25.912Z,101188.44
2022-09-15T18:42:54.142Z,101196.69
2022-09-15T18:45:20.874Z,101209.28
2022-09-15T18:47:49.165Z,101203.03
2022-09-15T18:50:17.184Z,101209.28
2022-09-15T18:52:43.771Z,101199.16
2022-09-15T18:55:15.186Z,101193.28
2022-09-15T18:57:42.788Z,101185.84
2022-09-15T19:00:13.509Z,101187.81
2022-09-15T19:02:40.494Z,101185.06
2022-09-15T19:05:07.843Z,101186.25
2022-09-15T19:07:34.344Z,101191.31
2022-09-15T19:10:01.707Z,101192.53
2022-09-15T19:12:28.307Z,101205.03
2022-09-15T19:14:54.846Z,101198.78
2022-09-15T19:17:21.574Z,101196.44
2022-09-15T19:19:48.145Z,101204.63
2022-09-15T19:22:14.693Z,101198.34
2022-09-15T19:24:41.109Z,101201.06
2022-09-15T19:27:09.713Z,101199.16
2022-09-15T19:29:36.789Z,101194.44
2022-09-15T19:32:05.926Z,101197.59
2022-09-15T19:34:32.505Z,101195.66
2022-09-15T19:36:59.107Z,101198.03
2022-09-15T19:39:26.034Z,101201.56
2022-09-15T19:41:52.636Z,101195.72
2022-09-15T19:44:19.148Z,101201.59
2022-09-15T19:46:45.763Z,101201.22
2022-09-15T19:49:12.704Z,101214.13
2022-09-15T19:51:39.459Z,101210.25
2022-09-15T19:54:06.305Z,101212.59
2022-09-15T19:56:32.850Z,101214.13
2022-09-15T19:58:59.581Z,101225.13
2022-09-15T20:01:28.705Z,101218.09
2022-09-15T20:03:56.888Z,101220.47
2022-09-15T20:06:27.623Z,101219.69
2022-09-15T20:08:58.214Z,101213.44
2022-09-15T20:11:27.181Z,101213.84
2022-09-15T20:13:56.446Z,101215.00
2022-09-15T20:16:24.082Z,101211.88
2022-09-15T20:18:53.763Z,101202.50
2022-09-15T20:21:45.836Z,101206.41
2022-09-15T20:24:12.538Z,101205.63
2022-09-15T20:26:39.032Z,101200.94
2022-09-15T20:29:05.555Z,101215.03
2022-09-15T20:31:33.078Z,101213.44
2022-09-15T20:34:01.183Z,101220.50
2022-09-15T20:36:34.234Z,101212.25
2022-09-15T20:39:03.261Z,101209.13
2022-09-15T20:41:31.896Z,101215.00
2022-09-15T20:43:59.187Z,101213.84
2022-09-15T20:46:26.105Z,101223.22
2022-09-15T20:48:53.914Z,101206.03
2022-09-15T20:51:23.504Z,101205.28
2022-09-15T20:53:53.611Z,101204.47
2022-09-15T20:56:24.701Z,101206.03
2022-09-15T20:58:52.735Z,101215.06
2022-09-15T21:01:22.758Z,101213.09
2022-09-15T21:03:49.473Z,101211.16
2022-09-15T21:06:19.933Z,101211.94
2022-09-15T21:08:48.995Z,101206.88
2022-09-15T21:11:18.511Z,101211.94
2022-09-15T21:13:45.397Z,101209.63
2022-09-15T21:16:15.545Z,101209.25
2022-09-15T21:18:43.674Z,101211.97
2022-09-15T21:21:11.918Z,101216.66
2022-09-15T21:23:42.649Z,101224.06
2022-09-15T21:26:13.022Z,101213.94
2022-09-15T21:28:40.206Z,101221.38
2022-09-15T21:31:09.853Z,101222.91
2022-09-15T21:33:37.755Z,101223.69
2022-09-15T21:36:09.800Z,101227.63
2022-09-15T21:38:38.250Z,101230.34
2022-09-15T21:41:06.148Z,101222.94
2022-09-15T21:43:36.037Z,101223.72
2022-09-15T21:46:04.792Z,101220.59
2022-09-15T21:48:32.618Z,101221.75
2022-09-15T21:50:59.901Z,101224.91
2022-09-15T21:53:27.775Z,101221.78
2022-09-15T21:55:55.174Z,101229.59
2022-09-15T21:58:25.902Z,101220.59
2022-09-15T22:00:52.947Z,101228.41
2022-09-15T22:03:19.459Z,101224.53
2022-09-15T22:05:48.204Z,101229.19
2022-09-15T22:08:16.188Z,101235.44
2022-09-15T22:10:44.342Z,101239.72
2022-09-15T22:13:11.685Z,101233.09
2022-09-15T22:15:38.211Z,101231.16
2022-09-15T22:18:04.920Z,101228.81
2022-09-15T22:20:31.398Z,101224.53
2022-09-15T22:23:01.195Z,101228.00
2022-09-15T22:25:27.680Z,101218.66
2022-09-15T22:27:54.137Z,101215.91
2022-09-15T22:30:20.596Z,101197.56
2022-09-15T22:32:47.324Z,101197.56
2022-09-15T22:35:13.966Z,101194.84
2022-09-15T22:37:41.553Z,101206.97
2022-09-15T22:40:08.577Z,101201.09
2022-09-15T22:42:35.099Z,101208.53
2022-09-15T22:45:01.713Z,101201.09
2022-09-15T22:47:28.336Z,101194.06
2022-09-15T22:49:55.288Z,101197.59
2022-09-15T22:52:22.859Z,101203.06
2022-09-15T22:54:49.344Z,101203.44
2022-09-15T22:57:15.819Z,101203.81
2022-09-15T22:59:42.546Z,101201.09
2022-09-15T23:02:09.097Z,101201.50
2022-09-15T23:04:35.615Z,101203.03
2022-09-15T23:07:02.150Z,101205.78
2022-09-15T23:09:28.639Z,101205.78
2022-09-15T23:11:55.471Z,101206.94
2022-09-15T23:14:21.931Z,101201.88
2022-09-15T23:16:48.437Z,101208.91
2022-09-15T23:19:15.065Z,101208.91
2022-09-15T23:21:41.597Z,101220.56
2022-09-15T23:24:08.735Z,101218.63
2022-09-15T23:26:35.307Z,101214.69
2022-09-15T23:29:01.752Z,101218.22
2022-09-15T23:31:28.364Z,101214.34
2022-09-15T23:33:54.859Z,101212.03
2022-09-15T23:36:21.855Z,101210.47
2022-09-15T23:38:49.181Z,101205.00
2022-09-15T23:41:16.849Z,101199.94
2022-09-15T23:43:43.431Z,101200.31
2022-09-15T23:46:10.312Z,101202.28
2022-09-15T23:48:37.159Z,101203.44
2022-09-15T23:51:04.369Z,101203.81
2022-09-15T23:53:30.940Z,101212.00
2022-09-15T23:55:57.390Z,101211.22
2022-09-15T23:58:24.030Z,101212.81
